Okmulgee, OK

6:38 AM CDT on July 25, 2016 (GMT -0500)
Okmulgee Regional | | Change Station

Elev 722 ft 35.67 °N, 95.95 °W | Updated 23 minutes ago

Clear
Clear
77 °F
Feels Like 77 °F
N
4
Wind Variable Wind from SSW

Today
High -- | Low -- °F
--% Chance of Precip.
Yesterday
High -- | Low -- °F
Precip. -- in
Pressure 29.97 in
Visibility 10.0 miles
Clouds Clear
Dew Point 74 °F
Humidity 91%
Rainfall 0.00 in
Snow Depth Not available.
6:26 AM 8:33 PM
Waning Gibbous, 67% visible
METAR KOKM 251115Z AUTO 21003KT 10SM CLR 25/24 A2997 RMK AO2 T02510235
Pressure 29.97 in
Visibility 10.0 miles
Clouds Clear
Dew Point 74 °F
Humidity 91%
Rainfall 0.00 in
Snow Depth Not available.
6:26 AM 8:33 PM
Waning Gibbous, 67% visible
METAR KOKM 251115Z AUTO 21003KT 10SM CLR 25/24 A2997 RMK AO2 T02510235

10-Day Weather Forecast

Almanac

Astronomy

Jul. 25, 2016 Rise Set
Actual Time
Civil Twilight
Nautical Twilight
Astronomical Twilight
Moon
Length of Visible Light
Length of Day
Tomorrow will be .
, % of the Moon is Illuminated

Today's Extremes

State Highs State Lows

Community

WunderPhotos

Upload Photos

1,927,291 photos uploaded!

WunderBlog® & News

Nearby

Air Quality

  Air Quality AQ Index Pollutant
Not available.

Snow Depth

Station Depth Elevation

Earthquake Activity

City Distance Mag. Time & Date
Minimum magnitude displayed is 2.5.

Coastal Water Temperatures

Place Temperature

Stations

Nearby Weather Stations

Station Location Temp. Windchill Dew Point Humidity Wind Precip. Elev Updated Type
                   

Watches & Warnings

There are currently no watches in effect.